YLK weather

Barrie-Orillia (Lake Simcoe Regional Airport)
Barrie-Orillia, Ontario, Canada

Public forecast

Using degrees Celsius for public forecast. Weather courtesy of forecast.io.

Closest aviation weather report (METAR) to Barrie-Orillia (Lake Simcoe Regional Airport)

Closest report is CFB Borden, 20.0 nm (37.0 km) SW. Retrieved 2019/10/20 01:00 UTC (54 minutes ago):

CYBN 200100Z AUTO 16005KT 9SM CLR 06/04 A2993 RMK SLP143

Closest aviation forecast (TAF) to Barrie-Orillia (Lake Simcoe Regional Airport)

Forecast is more than 12 hours old.

Closest forecast is CFB Borden, 20.0 nm (37.0 km) SW. Retrieved 2019/10/18 18:33 UTC (1 day ago):

TAF TAF CYBN 181730Z 1818/1906 33010KT P6SM BKN020 BECMG 1818/1819 SCT025 SCT240 BECMG 1823/1901 VRB03KT RMK FCST BASED ON AUTO OBS NXT FCST BY 190000Z